sensor_id;sensor_type;location;lat;lon;timestamp;P1;durP1;ratioP1;P2;durP2;ratioP2
64932;SDS011;51446;53.850;10.662;2023-05-07T00:02:24;18.50;;;12.80;;
64932;SDS011;51446;53.850;10.662;2023-05-07T00:04:50;17.20;;;12.17;;
64932;SDS011;51446;53.850;10.662;2023-05-07T00:07:17;17.00;;;11.57;;
64932;SDS011;51446;53.850;10.662;2023-05-07T00:09:42;17.50;;;11.73;;
64932;SDS011;51446;53.850;10.662;2023-05-07T00:12:07;16.83;;;12.15;;
64932;SDS011;51446;53.850;10.662;2023-05-07T00:14:32;18.98;;;11.88;;
64932;SDS011;51446;53.850;10.662;2023-05-07T00:16:58;21.23;;;11.95;;
64932;SDS011;51446;53.850;10.662;2023-05-07T00:19:23;16.15;;;11.70;;
64932;SDS011;51446;53.850;10.662;2023-05-07T00:21:49;18.17;;;11.17;;
64932;SDS011;51446;53.850;10.662;2023-05-07T00:24:14;19.50;;;11.93;;
64932;SDS011;51446;53.850;10.662;2023-05-07T00:26:39;15.93;;;11.60;;
64932;SDS011;51446;53.850;10.662;2023-05-07T00:29:04;15.93;;;10.93;;
64932;SDS011;51446;53.850;10.662;2023-05-07T00:31:30;16.27;;;11.20;;
64932;SDS011;51446;53.850;10.662;2023-05-07T00:33:55;15.53;;;10.97;;
64932;SDS011;51446;53.850;10.662;2023-05-07T00:36:20;17.03;;;11.67;;
64932;SDS011;51446;53.850;10.662;2023-05-07T00:38:45;19.93;;;11.97;;
64932;SDS011;51446;53.850;10.662;2023-05-07T00:41:11;14.37;;;10.83;;
64932;SDS011;51446;53.850;10.662;2023-05-07T00:43:36;19.08;;;12.48;;
64932;SDS011;51446;53.850;10.662;2023-05-07T00:46:01;16.75;;;11.63;;
64932;SDS011;51446;53.850;10.662;2023-05-07T00:48:27;15.45;;;11.60;;
64932;SDS011;51446;53.850;10.662;2023-05-07T00:50:52;21.43;;;12.87;;
64932;SDS011;51446;53.850;10.662;2023-05-07T00:53:18;18.77;;;12.90;;
64932;SDS011;51446;53.850;10.662;2023-05-07T00:55:43;19.15;;;12.68;;
64932;SDS011;51446;53.850;10.662;2023-05-07T00:58:09;17.20;;;12.00;;
64932;SDS011;51446;53.850;10.662;2023-05-07T01:00:34;16.37;;;11.40;;
64932;SDS011;51446;53.850;10.662;2023-05-07T01:03:00;16.90;;;11.77;;
64932;SDS011;51446;53.850;10.662;2023-05-07T01:05:26;18.30;;;11.87;;
64932;SDS011;51446;53.850;10.662;2023-05-07T01:07:53;14.52;;;10.93;;
64932;SDS011;51446;53.850;10.662;2023-05-07T01:10:20;15.38;;;11.18;;
64932;SDS011;51446;53.850;10.662;2023-05-07T01:12:45;20.27;;;11.37;;
64932;SDS011;51446;53.850;10.662;2023-05-07T01:15:13;15.35;;;11.32;;
64932;SDS011;51446;53.850;10.662;2023-05-07T01:17:39;17.75;;;11.70;;
64932;SDS011;51446;53.850;10.662;2023-05-07T01:20:05;15.07;;;11.55;;
64932;SDS011;51446;53.850;10.662;2023-05-07T01:22:32;16.83;;;11.93;;
64932;SDS011;51446;53.850;10.662;2023-05-07T01:24:58;14.25;;;10.65;;
64932;SDS011;51446;53.850;10.662;2023-05-07T01:27:26;18.13;;;11.30;;
64932;SDS011;51446;53.850;10.662;2023-05-07T01:29:51;14.73;;;10.90;;
64932;SDS011;51446;53.850;10.662;2023-05-07T01:32:17;15.33;;;11.00;;
64932;SDS011;51446;53.850;10.662;2023-05-07T01:34:46;19.60;;;12.18;;
64932;SDS011;51446;53.850;10.662;2023-05-07T01:37:14;15.95;;;11.77;;
64932;SDS011;51446;53.850;10.662;2023-05-07T01:39:39;16.50;;;11.43;;
64932;SDS011;51446;53.850;10.662;2023-05-07T01:42:05;15.67;;;10.60;;
64932;SDS011;51446;53.850;10.662;2023-05-07T01:44:30;15.38;;;11.52;;
64932;SDS011;51446;53.850;10.662;2023-05-07T01:46:56;14.13;;;10.85;;
64932;SDS011;51446;53.850;10.662;2023-05-07T01:49:22;14.65;;;10.85;;
64932;SDS011;51446;53.850;10.662;2023-05-07T01:51:47;15.60;;;11.63;;
64932;SDS011;51446;53.850;10.662;2023-05-07T01:54:13;13.80;;;10.50;;
64932;SDS011;51446;53.850;10.662;2023-05-07T01:56:39;14.00;;;10.07;;
64932;SDS011;51446;53.850;10.662;2023-05-07T01:59:04;13.03;;;10.37;;
64932;SDS011;51446;53.850;10.662;2023-05-07T02:01:30;14.23;;;10.87;;
64932;SDS011;51446;53.850;10.662;2023-05-07T02:03:55;15.67;;;10.17;;
64932;SDS011;51446;53.850;10.662;2023-05-07T02:06:20;12.27;;;9.50;;
64932;SDS011;51446;53.850;10.662;2023-05-07T02:08:46;12.32;;;9.90;;
64932;SDS011;51446;53.850;10.662;2023-05-07T02:11:12;11.70;;;9.50;;
64932;SDS011;51446;53.850;10.662;2023-05-07T02:13:37;12.93;;;9.60;;
64932;SDS011;51446;53.850;10.662;2023-05-07T02:16:02;12.77;;;10.00;;
64932;SDS011;51446;53.850;10.662;2023-05-07T02:18:28;12.73;;;8.63;;
64932;SDS011;51446;53.850;10.662;2023-05-07T02:20:54;12.97;;;8.90;;
64932;SDS011;51446;53.850;10.662;2023-05-07T02:23:19;11.47;;;9.13;;
64932;SDS011;51446;53.850;10.662;2023-05-07T02:25:44;11.60;;;8.90;;
64932;SDS011;51446;53.850;10.662;2023-05-07T02:28:10;14.05;;;9.13;;
64932;SDS011;51446;53.850;10.662;2023-05-07T02:30:36;12.93;;;9.00;;
64932;SDS011;51446;53.850;10.662;2023-05-07T02:33:02;12.05;;;8.88;;
64932;SDS011;51446;53.850;10.662;2023-05-07T02:35:27;13.07;;;8.70;;
64932;SDS011;51446;53.850;10.662;2023-05-07T02:37:53;12.63;;;9.30;;
64932;SDS011;51446;53.850;10.662;2023-05-07T02:40:18;11.77;;;8.13;;
64932;SDS011;51446;53.850;10.662;2023-05-07T02:42:43;13.10;;;8.80;;
64932;SDS011;51446;53.850;10.662;2023-05-07T02:45:09;9.23;;;7.80;;
64932;SDS011;51446;53.850;10.662;2023-05-07T02:47:34;11.13;;;8.00;;
64932;SDS011;51446;53.850;10.662;2023-05-07T02:50:00;11.27;;;7.67;;
64932;SDS011;51446;53.850;10.662;2023-05-07T02:52:25;10.57;;;7.80;;
64932;SDS011;51446;53.850;10.662;2023-05-07T02:54:50;9.93;;;7.60;;
64932;SDS011;51446;53.850;10.662;2023-05-07T02:57:16;10.15;;;7.90;;
64932;SDS011;51446;53.850;10.662;2023-05-07T02:59:41;11.53;;;8.13;;
64932;SDS011;51446;53.850;10.662;2023-05-07T03:02:07;12.00;;;8.30;;
64932;SDS011;51446;53.850;10.662;2023-05-07T03:04:32;9.77;;;8.20;;
64932;SDS011;51446;53.850;10.662;2023-05-07T03:06:58;11.50;;;8.03;;
64932;SDS011;51446;53.850;10.662;2023-05-07T03:09:23;11.80;;;8.23;;
64932;SDS011;51446;53.850;10.662;2023-05-07T03:11:48;11.97;;;9.30;;
64932;SDS011;51446;53.850;10.662;2023-05-07T03:14:13;10.90;;;8.70;;
64932;SDS011;51446;53.850;10.662;2023-05-07T03:16:39;11.17;;;8.60;;
64932;SDS011;51446;53.850;10.662;2023-05-07T03:19:04;10.97;;;8.70;;
64932;SDS011;51446;53.850;10.662;2023-05-07T03:21:29;11.47;;;8.37;;
64932;SDS011;51446;53.850;10.662;2023-05-07T03:23:55;11.82;;;8.90;;
64932;SDS011;51446;53.850;10.662;2023-05-07T03:26:21;12.33;;;8.73;;
64932;SDS011;51446;53.850;10.662;2023-05-07T03:28:46;11.30;;;9.20;;
64932;SDS011;51446;53.850;10.662;2023-05-07T03:31:11;11.73;;;9.20;;
64932;SDS011;51446;53.850;10.662;2023-05-07T03:33:38;12.40;;;8.70;;
64932;SDS011;51446;53.850;10.662;2023-05-07T03:36:13;12.00;;;8.95;;
64932;SDS011;51446;53.850;10.662;2023-05-07T03:38:39;12.00;;;9.47;;
64932;SDS011;51446;53.850;10.662;2023-05-07T03:41:04;11.90;;;9.40;;
64932;SDS011;51446;53.850;10.662;2023-05-07T03:43:29;13.87;;;9.57;;
64932;SDS011;51446;53.850;10.662;2023-05-07T03:45:55;14.20;;;9.87;;
64932;SDS011;51446;53.850;10.662;2023-05-07T03:48:20;13.93;;;10.10;;
64932;SDS011;51446;53.850;10.662;2023-05-07T03:50:45;14.20;;;9.67;;
64932;SDS011;51446;53.850;10.662;2023-05-07T03:53:11;13.25;;;10.15;;
64932;SDS011;51446;53.850;10.662;2023-05-07T03:55:36;14.27;;;9.50;;
64932;SDS011;51446;53.850;10.662;2023-05-07T03:58:01;12.67;;;9.60;;
64932;SDS011;51446;53.850;10.662;2023-05-07T04:00:27;16.03;;;11.03;;
64932;SDS011;51446;53.850;10.662;2023-05-07T04:02:52;12.10;;;9.67;;
64932;SDS011;51446;53.850;10.662;2023-05-07T04:05:17;12.87;;;10.53;;
64932;SDS011;51446;53.850;10.662;2023-05-07T04:07:42;16.90;;;10.57;;
64932;SDS011;51446;53.850;10.662;2023-05-07T04:10:08;14.07;;;10.50;;
64932;SDS011;51446;53.850;10.662;2023-05-07T04:12:33;15.07;;;11.53;;
64932;SDS011;51446;53.850;10.662;2023-05-07T04:14:59;13.77;;;10.57;;
64932;SDS011;51446;53.850;10.662;2023-05-07T04:17:24;12.77;;;10.17;;
64932;SDS011;51446;53.850;10.662;2023-05-07T04:19:49;12.48;;;9.85;;
64932;SDS011;51446;53.850;10.662;2023-05-07T04:22:15;13.83;;;10.47;;
64932;SDS011;51446;53.850;10.662;2023-05-07T04:24:40;14.63;;;9.77;;
64932;SDS011;51446;53.850;10.662;2023-05-07T04:27:05;13.57;;;9.43;;
64932;SDS011;51446;53.850;10.662;2023-05-07T04:29:31;12.53;;;9.23;;
64932;SDS011;51446;53.850;10.662;2023-05-07T04:31:56;12.90;;;9.77;;
64932;SDS011;51446;53.850;10.662;2023-05-07T04:34:23;12.07;;;9.13;;
64932;SDS011;51446;53.850;10.662;2023-05-07T04:36:48;13.47;;;9.50;;
64932;SDS011;51446;53.850;10.662;2023-05-07T04:39:14;14.40;;;9.85;;
64932;SDS011;51446;53.850;10.662;2023-05-07T04:41:40;12.63;;;9.40;;
64932;SDS011;51446;53.850;10.662;2023-05-07T04:44:05;11.80;;;8.70;;
64932;SDS011;51446;53.850;10.662;2023-05-07T04:46:31;11.70;;;8.77;;
64932;SDS011;51446;53.850;10.662;2023-05-07T04:48:56;14.20;;;9.30;;
64932;SDS011;51446;53.850;10.662;2023-05-07T04:51:22;12.60;;;8.70;;
64932;SDS011;51446;53.850;10.662;2023-05-07T04:53:47;11.60;;;8.37;;
64932;SDS011;51446;53.850;10.662;2023-05-07T04:56:13;12.40;;;9.13;;
64932;SDS011;51446;53.850;10.662;2023-05-07T04:58:38;15.03;;;8.97;;
64932;SDS011;51446;53.850;10.662;2023-05-07T05:01:03;12.67;;;8.93;;
64932;SDS011;51446;53.850;10.662;2023-05-07T05:03:29;10.43;;;8.52;;
64932;SDS011;51446;53.850;10.662;2023-05-07T05:05:55;10.32;;;8.18;;
64932;SDS011;51446;53.850;10.662;2023-05-07T05:08:21;12.35;;;8.00;;
64932;SDS011;51446;53.850;10.662;2023-05-07T05:10:47;11.10;;;8.33;;
64932;SDS011;51446;53.850;10.662;2023-05-07T05:13:14;11.77;;;8.32;;
64932;SDS011;51446;53.850;10.662;2023-05-07T05:15:40;10.70;;;7.70;;
64932;SDS011;51446;53.850;10.662;2023-05-07T05:18:05;11.37;;;7.90;;
64932;SDS011;51446;53.850;10.662;2023-05-07T05:20:30;9.80;;;7.53;;
64932;SDS011;51446;53.850;10.662;2023-05-07T05:22:55;11.40;;;8.10;;
64932;SDS011;51446;53.850;10.662;2023-05-07T05:25:21;10.83;;;8.20;;
64932;SDS011;51446;53.850;10.662;2023-05-07T05:27:46;9.40;;;7.43;;
64932;SDS011;51446;53.850;10.662;2023-05-07T05:30:11;9.90;;;7.60;;
64932;SDS011;51446;53.850;10.662;2023-05-07T05:32:37;10.45;;;7.20;;
64932;SDS011;51446;53.850;10.662;2023-05-07T05:35:03;9.13;;;7.13;;
64932;SDS011;51446;53.850;10.662;2023-05-07T05:37:28;8.53;;;6.83;;
64932;SDS011;51446;53.850;10.662;2023-05-07T05:39:55;8.95;;;7.20;;
64932;SDS011;51446;53.850;10.662;2023-05-07T05:42:20;8.63;;;7.03;;
64932;SDS011;51446;53.850;10.662;2023-05-07T05:44:46;8.93;;;7.03;;
64932;SDS011;51446;53.850;10.662;2023-05-07T05:47:11;9.93;;;7.00;;
64932;SDS011;51446;53.850;10.662;2023-05-07T05:49:36;12.82;;;7.35;;
64932;SDS011;51446;53.850;10.662;2023-05-07T05:52:01;11.30;;;7.30;;
64932;SDS011;51446;53.850;10.662;2023-05-07T05:54:27;9.03;;;7.30;;
64932;SDS011;51446;53.850;10.662;2023-05-07T05:56:52;8.90;;;7.13;;
64932;SDS011;51446;53.850;10.662;2023-05-07T05:59:17;9.87;;;7.00;;
64932;SDS011;51446;53.850;10.662;2023-05-07T06:01:43;8.23;;;6.43;;
64932;SDS011;51446;53.850;10.662;2023-05-07T06:04:08;9.57;;;6.60;;
64932;SDS011;51446;53.850;10.662;2023-05-07T06:06:33;9.23;;;6.93;;
64932;SDS011;51446;53.850;10.662;2023-05-07T06:08:58;8.83;;;6.23;;
64932;SDS011;51446;53.850;10.662;2023-05-07T06:11:24;8.90;;;5.90;;
64932;SDS011;51446;53.850;10.662;2023-05-07T06:13:50;7.77;;;6.27;;
64932;SDS011;51446;53.850;10.662;2023-05-07T06:16:15;7.87;;;6.37;;
64932;SDS011;51446;53.850;10.662;2023-05-07T06:18:40;6.57;;;5.57;;
64932;SDS011;51446;53.850;10.662;2023-05-07T06:21:06;6.40;;;5.67;;
64932;SDS011;51446;53.850;10.662;2023-05-07T06:23:31;8.20;;;5.70;;
64932;SDS011;51446;53.850;10.662;2023-05-07T06:25:56;6.73;;;5.47;;
64932;SDS011;51446;53.850;10.662;2023-05-07T06:28:21;6.10;;;5.50;;
64932;SDS011;51446;53.850;10.662;2023-05-07T06:30:47;7.87;;;5.67;;
64932;SDS011;51446;53.850;10.662;2023-05-07T06:33:13;7.22;;;4.90;;
64932;SDS011;51446;53.850;10.662;2023-05-07T06:35:39;6.77;;;5.07;;
64932;SDS011;51446;53.850;10.662;2023-05-07T06:38:04;6.20;;;5.40;;
64932;SDS011;51446;53.850;10.662;2023-05-07T06:40:30;6.97;;;5.20;;
64932;SDS011;51446;53.850;10.662;2023-05-07T06:42:55;7.57;;;5.80;;
64932;SDS011;51446;53.850;10.662;2023-05-07T06:45:20;7.70;;;5.63;;
64932;SDS011;51446;53.850;10.662;2023-05-07T06:47:45;9.30;;;6.23;;
64932;SDS011;51446;53.850;10.662;2023-05-07T06:50:11;7.73;;;6.70;;
64932;SDS011;51446;53.850;10.662;2023-05-07T06:52:36;11.63;;;6.80;;
64932;SDS011;51446;53.850;10.662;2023-05-07T06:55:01;11.17;;;7.10;;
64932;SDS011;51446;53.850;10.662;2023-05-07T06:57:27;8.80;;;6.33;;
64932;SDS011;51446;53.850;10.662;2023-05-07T06:59:52;9.00;;;6.50;;
64932;SDS011;51446;53.850;10.662;2023-05-07T07:02:17;9.13;;;6.67;;
64932;SDS011;51446;53.850;10.662;2023-05-07T07:04:42;12.30;;;6.40;;
64932;SDS011;51446;53.850;10.662;2023-05-07T07:07:08;9.77;;;6.13;;
64932;SDS011;51446;53.850;10.662;2023-05-07T07:09:33;9.80;;;6.20;;
64932;SDS011;51446;53.850;10.662;2023-05-07T07:11:58;7.57;;;6.07;;
64932;SDS011;51446;53.850;10.662;2023-05-07T07:14:24;8.93;;;5.70;;
64932;SDS011;51446;53.850;10.662;2023-05-07T07:16:49;9.77;;;5.13;;
64932;SDS011;51446;53.850;10.662;2023-05-07T07:19:14;5.60;;;5.00;;
64932;SDS011;51446;53.850;10.662;2023-05-07T07:21:42;6.35;;;5.05;;
64932;SDS011;51446;53.850;10.662;2023-05-07T07:24:08;5.30;;;4.70;;
64932;SDS011;51446;53.850;10.662;2023-05-07T07:26:33;6.67;;;4.70;;
64932;SDS011;51446;53.850;10.662;2023-05-07T07:28:58;5.57;;;4.57;;
64932;SDS011;51446;53.850;10.662;2023-05-07T07:31:24;5.03;;;4.53;;
64932;SDS011;51446;53.850;10.662;2023-05-07T07:33:49;4.97;;;4.47;;
64932;SDS011;51446;53.850;10.662;2023-05-07T07:36:15;8.82;;;4.78;;
64932;SDS011;51446;53.850;10.662;2023-05-07T07:38:40;5.35;;;4.55;;
64932;SDS011;51446;53.850;10.662;2023-05-07T07:41:07;6.70;;;4.80;;
64932;SDS011;51446;53.850;10.662;2023-05-07T07:43:33;5.35;;;4.85;;
64932;SDS011;51446;53.850;10.662;2023-05-07T07:45:58;4.97;;;4.47;;
64932;SDS011;51446;53.850;10.662;2023-05-07T07:48:24;5.20;;;4.23;;
64932;SDS011;51446;53.850;10.662;2023-05-07T07:50:49;4.47;;;3.93;;
64932;SDS011;51446;53.850;10.662;2023-05-07T07:53:16;5.35;;;4.20;;
64932;SDS011;51446;53.850;10.662;2023-05-07T07:55:41;5.38;;;3.67;;
64932;SDS011;51446;53.850;10.662;2023-05-07T07:58:06;5.30;;;3.93;;
64932;SDS011;51446;53.850;10.662;2023-05-07T08:00:31;4.50;;;3.80;;
64932;SDS011;51446;53.850;10.662;2023-05-07T08:02:57;6.53;;;4.30;;
64932;SDS011;51446;53.850;10.662;2023-05-07T08:05:22;5.47;;;4.30;;
64932;SDS011;51446;53.850;10.662;2023-05-07T08:07:48;5.60;;;3.90;;
64932;SDS011;51446;53.850;10.662;2023-05-07T08:10:17;5.40;;;4.15;;
64932;SDS011;51446;53.850;10.662;2023-05-07T08:12:46;4.43;;;3.85;;
64932;SDS011;51446;53.850;10.662;2023-05-07T08:15:12;4.38;;;3.97;;
64932;SDS011;51446;53.850;10.662;2023-05-07T08:17:37;4.67;;;4.17;;
64932;SDS011;51446;53.850;10.662;2023-05-07T08:20:02;6.07;;;4.50;;
64932;SDS011;51446;53.850;10.662;2023-05-07T08:22:28;5.23;;;4.43;;
64932;SDS011;51446;53.850;10.662;2023-05-07T08:24:53;4.87;;;4.37;;
64932;SDS011;51446;53.850;10.662;2023-05-07T08:27:18;5.47;;;4.30;;
64932;SDS011;51446;53.850;10.662;2023-05-07T08:29:44;7.33;;;4.20;;
64932;SDS011;51446;53.850;10.662;2023-05-07T08:32:12;5.07;;;4.13;;
64932;SDS011;51446;53.850;10.662;2023-05-07T08:34:37;4.83;;;4.30;;
64932;SDS011;51446;53.850;10.662;2023-05-07T08:37:02;4.93;;;4.27;;
64932;SDS011;51446;53.850;10.662;2023-05-07T08:39:28;5.43;;;4.27;;
64932;SDS011;51446;53.850;10.662;2023-05-07T08:41:54;5.77;;;4.90;;
64932;SDS011;51446;53.850;10.662;2023-05-07T08:44:22;4.85;;;4.28;;
64932;SDS011;51446;53.850;10.662;2023-05-07T08:46:50;5.95;;;4.50;;
64932;SDS011;51446;53.850;10.662;2023-05-07T08:49:18;6.15;;;4.82;;
64932;SDS011;51446;53.850;10.662;2023-05-07T08:51:45;5.85;;;4.30;;
64932;SDS011;51446;53.850;10.662;2023-05-07T08:54:11;4.68;;;4.22;;
64932;SDS011;51446;53.850;10.662;2023-05-07T08:56:37;4.85;;;4.05;;
64932;SDS011;51446;53.850;10.662;2023-05-07T08:59:02;5.87;;;4.10;;
64932;SDS011;51446;53.850;10.662;2023-05-07T09:01:28;4.78;;;4.22;;
64932;SDS011;51446;53.850;10.662;2023-05-07T09:03:53;4.90;;;4.07;;
64932;SDS011;51446;53.850;10.662;2023-05-07T09:06:19;5.03;;;4.20;;
64932;SDS011;51446;53.850;10.662;2023-05-07T09:08:51;5.47;;;4.40;;
64932;SDS011;51446;53.850;10.662;2023-05-07T09:11:21;4.72;;;3.58;;
64932;SDS011;51446;53.850;10.662;2023-05-07T09:13:47;6.80;;;3.20;;
64932;SDS011;51446;53.850;10.662;2023-05-07T09:16:13;4.63;;;3.00;;
64932;SDS011;51446;53.850;10.662;2023-05-07T09:18:42;7.28;;;3.10;;
64932;SDS011;51446;53.850;10.662;2023-05-07T09:21:11;3.70;;;3.30;;
64932;SDS011;51446;53.850;10.662;2023-05-07T09:23:40;3.58;;;3.00;;
64932;SDS011;51446;53.850;10.662;2023-05-07T09:26:05;5.97;;;3.10;;
64932;SDS011;51446;53.850;10.662;2023-05-07T09:28:37;3.40;;;2.60;;
64932;SDS011;51446;53.850;10.662;2023-05-07T09:31:03;3.53;;;3.08;;
64932;SDS011;51446;53.850;10.662;2023-05-07T09:33:29;3.60;;;2.90;;
64932;SDS011;51446;53.850;10.662;2023-05-07T09:35:55;3.38;;;2.90;;
64932;SDS011;51446;53.850;10.662;2023-05-07T09:38:20;3.30;;;2.70;;
64932;SDS011;51446;53.850;10.662;2023-05-07T09:40:46;4.10;;;3.00;;
64932;SDS011;51446;53.850;10.662;2023-05-07T09:43:13;5.27;;;3.47;;
64932;SDS011;51446;53.850;10.662;2023-05-07T09:45:38;4.05;;;2.72;;
64932;SDS011;51446;53.850;10.662;2023-05-07T09:48:04;3.27;;;2.80;;
64932;SDS011;51446;53.850;10.662;2023-05-07T09:50:39;2.42;;;1.90;;
64932;SDS011;51446;53.850;10.662;2023-05-07T09:53:13;2.80;;;2.10;;
64932;SDS011;51446;53.850;10.662;2023-05-07T09:55:39;3.50;;;2.30;;
64932;SDS011;51446;53.850;10.662;2023-05-07T09:58:05;2.83;;;2.40;;
64932;SDS011;51446;53.850;10.662;2023-05-07T10:00:31;3.42;;;2.60;;
64932;SDS011;51446;53.850;10.662;2023-05-07T10:02:57;3.17;;;2.63;;
64932;SDS011;51446;53.850;10.662;2023-05-07T10:05:23;3.25;;;2.10;;
64932;SDS011;51446;53.850;10.662;2023-05-07T10:07:49;4.72;;;2.47;;
64932;SDS011;51446;53.850;10.662;2023-05-07T10:10:15;2.35;;;2.15;;
64932;SDS011;51446;53.850;10.662;2023-05-07T10:12:42;4.28;;;2.58;;
64932;SDS011;51446;53.850;10.662;2023-05-07T10:15:08;4.07;;;2.50;;
64932;SDS011;51446;53.850;10.662;2023-05-07T10:17:35;2.73;;;2.23;;
64932;SDS011;51446;53.850;10.662;2023-05-07T10:20:01;2.97;;;2.35;;
64932;SDS011;51446;53.850;10.662;2023-05-07T10:22:27;2.88;;;2.30;;
64932;SDS011;51446;53.850;10.662;2023-05-07T10:24:57;4.15;;;2.47;;
64932;SDS011;51446;53.850;10.662;2023-05-07T10:27:27;2.80;;;2.50;;
64932;SDS011;51446;53.850;10.662;2023-05-07T10:32:48;4.47;;;2.38;;
64932;SDS011;51446;53.850;10.662;2023-05-07T10:35:17;3.45;;;2.28;;
64932;SDS011;51446;53.850;10.662;2023-05-07T10:37:46;2.72;;;1.80;;
64932;SDS011;51446;53.850;10.662;2023-05-07T10:40:12;3.50;;;2.10;;
64932;SDS011;51446;53.850;10.662;2023-05-07T10:42:38;2.67;;;1.83;;
64932;SDS011;51446;53.850;10.662;2023-05-07T10:45:16;2.97;;;2.20;;
64932;SDS011;51446;53.850;10.662;2023-05-07T10:50:40;2.28;;;1.83;;
64932;SDS011;51446;53.850;10.662;2023-05-07T11:00:47;4.45;;;1.67;;
64932;SDS011;51446;53.850;10.662;2023-05-07T11:03:13;2.33;;;1.83;;
64932;SDS011;51446;53.850;10.662;2023-05-07T11:05:40;2.03;;;1.70;;
64932;SDS011;51446;53.850;10.662;2023-05-07T11:08:06;1.75;;;1.50;;
64932;SDS011;51446;53.850;10.662;2023-05-07T11:13:15;2.47;;;1.30;;
64932;SDS011;51446;53.850;10.662;2023-05-07T11:15:42;2.00;;;1.80;;
64932;SDS011;51446;53.850;10.662;2023-05-07T11:18:12;3.10;;;1.50;;
64932;SDS011;51446;53.850;10.662;2023-05-07T11:20:49;1.73;;;1.48;;
64932;SDS011;51446;53.850;10.662;2023-05-07T11:26:04;3.27;;;1.63;;
64932;SDS011;51446;53.850;10.662;2023-05-07T11:28:31;2.00;;;1.60;;
64932;SDS011;51446;53.850;10.662;2023-05-07T11:31:01;3.28;;;1.67;;
64932;SDS011;51446;53.850;10.662;2023-05-07T11:33:27;1.55;;;1.40;;
64932;SDS011;51446;53.850;10.662;2023-05-07T11:35:55;2.30;;;1.70;;
64932;SDS011;51446;53.850;10.662;2023-05-07T11:38:21;2.92;;;1.70;;
64932;SDS011;51446;53.850;10.662;2023-05-07T11:40:53;1.70;;;1.57;;
64932;SDS011;51446;53.850;10.662;2023-05-07T11:43:20;2.42;;;1.60;;
64932;SDS011;51446;53.850;10.662;2023-05-07T11:45:45;4.13;;;1.50;;
64932;SDS011;51446;53.850;10.662;2023-05-07T11:48:15;1.40;;;1.30;;
64932;SDS011;51446;53.850;10.662;2023-05-07T11:53:24;2.00;;;1.27;;
64932;SDS011;51446;53.850;10.662;2023-05-07T11:55:54;1.88;;;1.33;;
64932;SDS011;51446;53.850;10.662;2023-05-07T11:58:21;2.47;;;1.33;;
64932;SDS011;51446;53.850;10.662;2023-05-07T12:00:48;2.30;;;1.45;;
64932;SDS011;51446;53.850;10.662;2023-05-07T12:03:14;1.50;;;1.40;;
64932;SDS011;51446;53.850;10.662;2023-05-07T12:05:39;1.97;;;1.53;;
64932;SDS011;51446;53.850;10.662;2023-05-07T12:08:06;3.03;;;1.60;;
64932;SDS011;51446;53.850;10.662;2023-05-07T12:10:32;3.92;;;1.23;;
64932;SDS011;51446;53.850;10.662;2023-05-07T12:12:57;2.43;;;1.60;;
64932;SDS011;51446;53.850;10.662;2023-05-07T12:15:22;4.40;;;1.60;;
64932;SDS011;51446;53.850;10.662;2023-05-07T12:17:48;1.70;;;1.60;;
64932;SDS011;51446;53.850;10.662;2023-05-07T12:20:14;3.70;;;1.70;;
64932;SDS011;51446;53.850;10.662;2023-05-07T12:22:40;2.50;;;1.40;;
64932;SDS011;51446;53.850;10.662;2023-05-07T12:25:06;2.45;;;1.60;;
64932;SDS011;51446;53.850;10.662;2023-05-07T12:27:31;4.33;;;1.50;;
64932;SDS011;51446;53.850;10.662;2023-05-07T12:29:57;1.83;;;1.67;;
64932;SDS011;51446;53.850;10.662;2023-05-07T12:32:24;4.37;;;2.00;;
64932;SDS011;51446;53.850;10.662;2023-05-07T12:34:50;1.95;;;1.73;;
64932;SDS011;51446;53.850;10.662;2023-05-07T12:37:16;3.13;;;2.00;;
64932;SDS011;51446;53.850;10.662;2023-05-07T12:39:47;1.85;;;1.75;;
64932;SDS011;51446;53.850;10.662;2023-05-07T12:42:16;4.30;;;1.80;;
64932;SDS011;51446;53.850;10.662;2023-05-07T12:44:45;2.50;;;2.10;;
64932;SDS011;51446;53.850;10.662;2023-05-07T12:47:10;2.30;;;1.50;;
64932;SDS011;51446;53.850;10.662;2023-05-07T12:49:37;3.25;;;1.50;;
64932;SDS011;51446;53.850;10.662;2023-05-07T12:52:03;1.83;;;1.60;;
64932;SDS011;51446;53.850;10.662;2023-05-07T12:54:30;2.78;;;1.50;;
64932;SDS011;51446;53.850;10.662;2023-05-07T12:57:00;1.97;;;1.60;;
64932;SDS011;51446;53.850;10.662;2023-05-07T12:59:33;2.35;;;1.40;;
64932;SDS011;51446;53.850;10.662;2023-05-07T13:01:59;2.10;;;1.77;;
64932;SDS011;51446;53.850;10.662;2023-05-07T13:04:24;2.00;;;1.80;;
64932;SDS011;51446;53.850;10.662;2023-05-07T13:06:50;2.38;;;1.60;;
64932;SDS011;51446;53.850;10.662;2023-05-07T13:09:15;2.37;;;1.83;;
64932;SDS011;51446;53.850;10.662;2023-05-07T13:11:40;2.00;;;1.70;;
64932;SDS011;51446;53.850;10.662;2023-05-07T13:14:06;1.97;;;1.50;;
64932;SDS011;51446;53.850;10.662;2023-05-07T13:16:31;2.83;;;1.90;;
64932;SDS011;51446;53.850;10.662;2023-05-07T13:18:56;3.33;;;1.70;;
64932;SDS011;51446;53.850;10.662;2023-05-07T13:21:22;2.17;;;1.83;;
64932;SDS011;51446;53.850;10.662;2023-05-07T13:23:47;2.00;;;1.73;;
64932;SDS011;51446;53.850;10.662;2023-05-07T13:26:12;4.57;;;1.83;;
64932;SDS011;51446;53.850;10.662;2023-05-07T13:28:37;2.80;;;1.77;;
64932;SDS011;51446;53.850;10.662;2023-05-07T13:31:02;3.07;;;1.80;;
64932;SDS011;51446;53.850;10.662;2023-05-07T13:33:28;2.40;;;1.60;;
64932;SDS011;51446;53.850;10.662;2023-05-07T13:35:53;2.33;;;1.90;;
64932;SDS011;51446;53.850;10.662;2023-05-07T13:38:18;1.70;;;1.60;;
64932;SDS011;51446;53.850;10.662;2023-05-07T13:40:44;1.57;;;1.47;;
64932;SDS011;51446;53.850;10.662;2023-05-07T13:43:09;1.53;;;1.43;;
64932;SDS011;51446;53.850;10.662;2023-05-07T13:45:35;3.28;;;1.83;;
64932;SDS011;51446;53.850;10.662;2023-05-07T13:48:00;2.00;;;1.73;;
64932;SDS011;51446;53.850;10.662;2023-05-07T13:50:25;2.40;;;1.93;;
64932;SDS011;51446;53.850;10.662;2023-05-07T13:52:52;4.15;;;1.70;;
64932;SDS011;51446;53.850;10.662;2023-05-07T13:55:17;1.73;;;1.50;;
64932;SDS011;51446;53.850;10.662;2023-05-07T13:57:43;2.20;;;1.60;;
64932;SDS011;51446;53.850;10.662;2023-05-07T14:00:09;3.10;;;2.03;;
64932;SDS011;51446;53.850;10.662;2023-05-07T14:02:34;1.70;;;1.60;;
64932;SDS011;51446;53.850;10.662;2023-05-07T14:05:00;2.33;;;1.90;;
64932;SDS011;51446;53.850;10.662;2023-05-07T14:07:25;2.40;;;1.80;;
64932;SDS011;51446;53.850;10.662;2023-05-07T14:09:50;1.70;;;1.60;;
64932;SDS011;51446;53.850;10.662;2023-05-07T14:12:16;3.57;;;1.80;;
64932;SDS011;51446;53.850;10.662;2023-05-07T14:14:41;2.93;;;1.70;;
64932;SDS011;51446;53.850;10.662;2023-05-07T14:17:06;2.40;;;1.70;;
64932;SDS011;51446;53.850;10.662;2023-05-07T14:19:33;3.30;;;2.20;;
64932;SDS011;51446;53.850;10.662;2023-05-07T14:21:58;2.53;;;1.90;;
64932;SDS011;51446;53.850;10.662;2023-05-07T14:24:23;3.83;;;1.90;;
64932;SDS011;51446;53.850;10.662;2023-05-07T14:26:49;3.30;;;1.60;;
64932;SDS011;51446;53.850;10.662;2023-05-07T14:29:14;2.53;;;1.70;;
64932;SDS011;51446;53.850;10.662;2023-05-07T14:31:43;2.40;;;1.80;;
64932;SDS011;51446;53.850;10.662;2023-05-07T14:34:08;3.07;;;1.90;;
64932;SDS011;51446;53.850;10.662;2023-05-07T14:36:34;2.07;;;1.73;;
64932;SDS011;51446;53.850;10.662;2023-05-07T14:38:59;3.43;;;1.70;;
64932;SDS011;51446;53.850;10.662;2023-05-07T14:41:24;3.33;;;1.55;;
64932;SDS011;51446;53.850;10.662;2023-05-07T14:43:50;3.33;;;1.67;;